Time;durP1;ratioP1;P1;durP2;ratioP2;P2;SDS_P1;SDS_P2;PMS_P1;PMS_P2;Temp;Humidity;BMP_temperature;BMP_pressure;BME280_temperature;BME280_humidity;BME280_pressure;Samples;Min_cycle;Max_cycle;Signal;HPM_P1;HPM_P2
2022/11/30 00:01:07;;;;;;;22.50;11.40;;;8.70;99.90;;;;;;5053805;28;20037;-80
2022/11/30 00:03:32;;;;;;;26.42;12.55;;;8.70;99.90;;;;;;5053142;28;20112;-80
2022/11/30 00:06:04;;;;;;;27.73;12.55;;;8.70;99.90;;;;;;5053717;28;20115;-80
2022/11/30 00:08:29;;;;;;;26.10;11.52;;;8.70;99.90;;;;;;5053033;28;20029;-80
2022/11/30 00:10:55;;;;;;;25.08;11.77;;;8.70;99.90;;;;;;5053480;28;20433;-79
2022/11/30 00:13:20;;;;;;;27.25;12.35;;;8.70;99.90;;;;;;5052037;28;20045;-79
2022/11/30 00:15:46;;;;;;;26.73;11.95;;;8.70;99.90;;;;;;5052832;28;20033;-79
2022/11/30 00:18:12;;;;;;;22.80;10.82;;;8.70;99.90;;;;;;5053219;28;20377;-80
2022/11/30 00:20:37;;;;;;;28.92;12.45;;;8.70;99.90;;;;;;5052629;28;20033;-78
2022/11/30 00:23:03;;;;;;;28.40;12.82;;;8.70;99.90;;;;;;5052476;28;20199;-81
2022/11/30 00:25:28;;;;;;;29.63;12.85;;;8.70;99.90;;;;;;5052811;28;20455;-79
2022/11/30 00:27:54;;;;;;;26.38;12.15;;;8.70;99.90;;;;;;5052586;28;20439;-78
2022/11/30 00:30:20;;;;;;;26.60;11.63;;;8.70;99.90;;;;;;5051975;28;20029;-79
2022/11/30 00:32:45;;;;;;;31.50;12.48;;;8.70;99.90;;;;;;5053308;28;20025;-79
2022/11/30 00:35:11;;;;;;;24.55;11.48;;;8.70;99.90;;;;;;5052710;28;20048;-79
2022/11/30 00:37:36;;;;;;;28.02;12.23;;;8.80;99.90;;;;;;5055882;28;20112;-79
2022/11/30 00:40:02;;;;;;;29.20;12.05;;;8.80;99.90;;;;;;5055551;28;20124;-80
2022/11/30 00:42:28;;;;;;;28.95;12.77;;;8.80;99.90;;;;;;5057293;28;20064;-78
2022/11/30 00:44:53;;;;;;;25.15;12.00;;;8.80;99.90;;;;;;5055524;28;20450;-78
2022/11/30 00:47:19;;;;;;;29.00;12.05;;;8.80;99.90;;;;;;5056177;28;20061;-78
2022/11/30 00:49:44;;;;;;;26.40;11.90;;;8.70;99.90;;;;;;5055831;28;20493;-78
2022/11/30 00:52:10;;;;;;;26.23;11.68;;;8.70;99.90;;;;;;5055601;28;20033;-79
2022/11/30 00:54:36;;;;;;;26.17;12.45;;;8.80;99.90;;;;;;5055851;28;20029;-78
2022/11/30 00:57:01;;;;;;;30.77;12.65;;;8.70;99.90;;;;;;5056733;28;20086;-80
2022/11/30 00:59:27;;;;;;;29.35;12.57;;;8.70;99.90;;;;;;5055519;28;20036;-78
2022/11/30 01:01:54;;;;;;;33.97;12.20;;;8.70;99.90;;;;;;5056740;28;20061;-78
2022/11/30 01:04:19;;;;;;;33.25;11.90;;;8.70;99.90;;;;;;5056399;28;20496;-78
2022/11/30 01:06:45;;;;;;;31.30;11.93;;;8.70;99.90;;;;;;5055932;28;20029;-79
2022/11/30 01:09:11;;;;;;;27.35;11.20;;;8.60;99.90;;;;;;5055262;28;20039;-77
2022/11/30 01:11:36;;;;;;;24.90;11.23;;;8.60;99.90;;;;;;5055551;28;20110;-77
2022/11/30 01:14:03;;;;;;;29.08;10.60;;;8.60;99.90;;;;;;5055040;28;20389;-80
2022/11/30 01:16:31;;;;;;;28.60;11.68;;;8.60;99.90;;;;;;5055009;28;20051;-78
2022/11/30 01:18:57;;;;;;;27.55;10.93;;;8.60;99.90;;;;;;5055196;28;20029;-78
2022/11/30 01:21:25;;;;;;;28.77;10.88;;;8.70;99.90;;;;;;5055489;28;20025;-77
2022/11/30 01:23:51;;;;;;;27.58;10.77;;;8.70;99.90;;;;;;5055120;28;20021;-78
2022/11/30 01:26:18;;;;;;;30.73;11.10;;;8.60;99.90;;;;;;5054484;28;20024;-79
2022/11/30 01:28:44;;;;;;;31.77;11.52;;;8.60;99.90;;;;;;5055024;28;20029;-79
2022/11/30 01:31:12;;;;;;;25.13;9.85;;;8.60;99.90;;;;;;5054467;28;20360;-79
2022/11/30 01:33:37;;;;;;;28.95;11.35;;;8.60;99.90;;;;;;5056035;28;20025;-79
2022/11/30 01:36:12;;;;;;;30.58;12.10;;;8.60;99.90;;;;;;5056036;28;20105;-80
2022/11/30 01:38:40;;;;;;;35.72;11.73;;;8.60;99.90;;;;;;5056167;28;20036;-79
2022/11/30 01:41:09;;;;;;;35.92;12.38;;;8.60;99.90;;;;;;5054347;28;20063;-81
2022/11/30 01:43:44;;;;;;;37.70;11.25;;;8.50;99.90;;;;;;5054926;28;20466;-79
2022/11/30 01:46:30;;;;;;;30.77;10.95;;;8.50;99.90;;;;;;5054504;28;20025;-79
2022/11/30 01:49:43;;;;;;;38.45;12.65;;;8.50;99.90;;;;;;5054878;28;20466;-79
2022/11/30 01:52:20;;;;;;;;;;;8.50;99.90;;;;;;5056199;28;20032;-80
2022/11/30 01:55:11;;;;;;;28.98;10.73;;;8.60;99.90;;;;;;5055174;28;20368;-79
2022/11/30 01:57:40;;;;;;;36.47;11.48;;;8.50;99.90;;;;;;5054876;28;20458;-79
2022/11/30 02:00:10;;;;;;;31.63;11.40;;;8.50;99.90;;;;;;5054317;28;20032;-80
2022/11/30 02:03:01;;;;;;;30.65;11.80;;;8.50;99.90;;;;;;5054827;28;20029;-79
2022/11/30 02:05:27;;;;;;;35.92;13.63;;;8.50;99.90;;;;;;5054462;28;20027;-79
2022/11/30 02:07:54;;;;;;;36.47;12.07;;;8.50;99.90;;;;;;5055730;28;20036;-79
2022/11/30 02:10:31;;;;;;;36.47;13.05;;;8.50;99.90;;;;;;5053436;28;20029;-79
2022/11/30 02:13:14;;;;;;;41.15;13.88;;;8.50;99.90;;;;;;5053935;28;20061;-77
2022/11/30 02:16:01;;;;;;;38.67;13.32;;;8.40;99.90;;;;;;5054875;28;20021;-77
2022/11/30 02:18:41;;;;;;;41.10;12.80;;;8.40;99.90;;;;;;5053638;28;20179;-77
2022/11/30 02:21:23;;;;;;;41.70;13.80;;;8.40;99.90;;;;;;5053963;28;20025;-78
2022/11/30 02:24:04;;;;;;;40.92;13.57;;;8.40;99.90;;;;;;5054357;28;20035;-77
2022/11/30 02:27:07;;;;;;;40.17;12.65;;;8.40;99.90;;;;;;5053525;28;20528;-77
2022/11/30 02:29:44;;;;;;;39.20;12.38;;;8.40;99.90;;;;;;5054500;28;20453;-77
2022/11/30 02:32:18;;;;;;;36.33;13.38;;;8.40;99.90;;;;;;5053571;28;20382;-79
2022/11/30 02:34:46;;;;;;;41.42;12.73;;;8.40;99.90;;;;;;5053947;28;20052;-77
2022/11/30 02:37:13;;;;;;;39.28;13.25;;;8.40;99.90;;;;;;5053308;28;20083;-78
2022/11/30 02:39:39;;;;;;;38.17;12.05;;;8.40;99.90;;;;;;5054595;28;20111;-79
2022/11/30 02:42:11;;;;;;;32.20;12.63;;;8.40;99.90;;;;;;5054010;28;20028;-77
2022/11/30 02:44:38;;;;;;;38.50;13.75;;;8.40;99.90;;;;;;5055106;28;20083;-79
2022/11/30 02:47:15;;;;;;;34.78;12.40;;;8.40;99.90;;;;;;5053708;28;20052;-79
2022/11/30 02:50:03;;;;;;;40.13;12.77;;;8.40;99.90;;;;;;5053787;28;20047;-79
2022/11/30 02:52:30;;;;;;;39.58;12.90;;;8.30;99.90;;;;;;5054238;28;20052;-79
2022/11/30 02:55:05;;;;;;;43.60;12.57;;;8.40;99.90;;;;;;5053837;28;20378;-79
2022/11/30 02:57:31;;;;;;;36.95;12.95;;;8.30;99.90;;;;;;5054717;28;20036;-80
2022/11/30 02:59:59;;;;;;;39.30;12.75;;;8.30;99.90;;;;;;5053946;28;20029;-80
2022/11/30 03:02:25;;;;;;;38.88;14.00;;;8.40;99.90;;;;;;5053073;28;20516;-79
2022/11/30 03:04:50;;;;;;;38.75;12.70;;;8.30;99.90;;;;;;5054229;28;20033;-79
2022/11/30 03:07:16;;;;;;;36.88;13.88;;;8.30;99.90;;;;;;5052924;28;20477;-80
2022/11/30 03:09:41;;;;;;;38.47;12.52;;;8.30;99.90;;;;;;5054476;28;20036;-79
2022/11/30 03:12:07;;;;;;;41.90;13.95;;;8.30;99.90;;;;;;5052870;28;20394;-79
2022/11/30 03:14:32;;;;;;;39.65;13.57;;;8.40;99.90;;;;;;5053744;28;20112;-80
2022/11/30 03:16:58;;;;;;;41.97;13.75;;;8.40;99.90;;;;;;5054447;28;20461;-80
2022/11/30 03:19:24;;;;;;;38.42;13.48;;;8.40;99.90;;;;;;5053568;28;20110;-79
2022/11/30 03:21:49;;;;;;;43.40;14.38;;;8.30;99.90;;;;;;5054057;28;20470;-79
2022/11/30 03:24:15;;;;;;;44.47;13.45;;;8.30;99.90;;;;;;5052394;28;20032;-80
2022/11/30 03:26:40;;;;;;;44.80;13.52;;;8.30;99.90;;;;;;5053989;28;20104;-79
2022/11/30 03:29:06;;;;;;;40.22;12.80;;;8.30;99.90;;;;;;5052829;28;20025;-79
2022/11/30 03:31:32;;;;;;;42.47;13.77;;;8.30;99.90;;;;;;5052408;28;20480;-79
2022/11/30 03:33:57;;;;;;;46.42;14.30;;;8.30;99.90;;;;;;5052906;28;20033;-79
2022/11/30 03:36:23;;;;;;;44.47;14.25;;;8.30;99.90;;;;;;5052297;28;20079;-79
2022/11/30 03:38:48;;;;;;;45.95;13.82;;;8.30;99.90;;;;;;5053087;28;20028;-79
2022/11/30 03:41:15;;;;;;;44.90;14.35;;;8.30;99.90;;;;;;5052105;28;20375;-80
2022/11/30 03:43:45;;;;;;;39.20;13.68;;;8.30;99.90;;;;;;5053744;28;20033;-79
2022/11/30 03:46:11;;;;;;;40.00;13.77;;;8.30;99.90;;;;;;5052218;28;20032;-81
2022/11/30 03:48:37;;;;;;;44.08;14.02;;;8.30;99.90;;;;;;5053147;28;20378;-78
2022/11/30 03:51:04;;;;;;;50.70;15.35;;;8.30;99.90;;;;;;5053585;28;20033;-78
2022/11/30 03:53:30;;;;;;;42.67;15.40;;;8.30;99.90;;;;;;5052460;28;20025;-80
2022/11/30 03:55:59;;;;;;;37.08;13.50;;;8.30;99.90;;;;;;5054140;28;20114;-78
2022/11/30 03:58:25;;;;;;;42.33;14.10;;;8.30;99.90;;;;;;5052196;28;20029;-79
2022/11/30 04:01:03;;;;;;;47.17;14.93;;;8.30;99.90;;;;;;5052506;28;20115;-79
2022/11/30 04:03:29;;;;;;;43.13;14.63;;;8.30;99.90;;;;;;5052878;28;20067;-78
2022/11/30 04:05:55;;;;;;;42.63;13.38;;;8.30;99.90;;;;;;5052240;28;20115;-78
2022/11/30 04:08:21;;;;;;;38.33;14.13;;;8.30;99.90;;;;;;5052938;28;20021;-79
2022/11/30 04:10:50;;;;;;;44.65;13.88;;;8.20;99.90;;;;;;5053185;28;20041;-79
2022/11/30 04:13:16;;;;;;;41.63;14.05;;;8.30;99.90;;;;;;5051491;28;20063;-82
2022/11/30 04:15:42;;;;;;;46.83;14.55;;;8.30;99.90;;;;;;5052572;28;20028;-79
2022/11/30 04:18:07;;;;;;;45.60;13.60;;;8.30;99.90;;;;;;5052423;28;20454;-79
2022/11/30 04:20:33;;;;;;;42.88;14.35;;;8.30;99.90;;;;;;5051834;28;20027;-79
2022/11/30 04:22:58;;;;;;;36.17;13.27;;;8.30;99.90;;;;;;5052491;28;20025;-79
2022/11/30 04:25:24;;;;;;;37.92;13.40;;;8.30;99.90;;;;;;5052190;28;20362;-79
2022/11/30 04:27:50;;;;;;;33.60;12.35;;;8.30;99.90;;;;;;5052824;28;20033;-79
2022/11/30 04:30:16;;;;;;;37.70;13.10;;;8.30;99.90;;;;;;5052082;28;20029;-82
2022/11/30 04:32:42;;;;;;;41.72;12.80;;;8.30;99.90;;;;;;5047943;28;20036;-80
2022/11/30 04:35:08;;;;;;;40.40;12.45;;;8.30;99.90;;;;;;5062906;28;20474;-79
2022/11/30 04:37:34;;;;;;;43.55;13.35;;;8.30;99.90;;;;;;5052987;28;20139;-79
2022/11/30 04:39:59;;;;;;;39.83;12.70;;;8.30;99.90;;;;;;5052206;28;20137;-79
2022/11/30 04:42:25;;;;;;;39.83;13.88;;;8.30;99.90;;;;;;5051868;28;20029;-80
2022/11/30 04:44:50;;;;;;;38.60;14.00;;;8.30;99.90;;;;;;5052785;28;20436;-80
2022/11/30 04:47:16;;;;;;;37.42;13.25;;;8.30;99.90;;;;;;5051020;28;20035;-82
2022/11/30 04:49:41;;;;;;;41.60;13.18;;;8.30;99.90;;;;;;5051932;28;20036;-79
2022/11/30 04:52:07;;;;;;;38.70;13.52;;;8.30;99.90;;;;;;5071785;28;20032;-79
2022/11/30 04:54:33;;;;;;;45.13;13.65;;;8.30;99.90;;;;;;5066044;28;20032;-79
2022/11/30 04:56:58;;;;;;;36.97;14.00;;;8.30;99.90;;;;;;5052007;28;20116;-79
2022/11/30 04:59:24;;;;;;;35.78;11.98;;;8.30;99.90;;;;;;5066337;28;20465;-79
2022/11/30 05:01:49;;;;;;;33.58;12.27;;;8.30;99.90;;;;;;5055595;28;20470;-80
2022/11/30 05:04:15;;;;;;;37.95;12.57;;;8.30;99.90;;;;;;5035342;28;20065;-81
2022/11/30 05:06:41;;;;;;;36.80;13.43;;;8.30;99.90;;;;;;5048012;28;20036;-79
2022/11/30 05:09:06;;;;;;;37.72;13.73;;;8.30;99.90;;;;;;5048414;28;20107;-80
2022/11/30 05:11:32;;;;;;;34.60;12.23;;;8.30;99.90;;;;;;5031355;28;20054;-80
2022/11/30 05:13:57;;;;;;;41.20;12.52;;;8.30;99.90;;;;;;5037009;28;20034;-80
2022/11/30 05:16:23;;;;;;;35.10;12.95;;;8.30;99.90;;;;;;5071674;28;20055;-80
2022/11/30 05:18:48;;;;;;;35.60;11.70;;;8.30;99.90;;;;;;5072853;28;20032;-80
2022/11/30 05:21:15;;;;;;;37.58;12.68;;;8.30;99.90;;;;;;5071832;28;20050;-79
2022/11/30 05:23:41;;;;;;;38.83;13.10;;;8.30;99.90;;;;;;5075041;28;20032;-79
2022/11/30 05:26:06;;;;;;;31.77;13.15;;;8.30;99.90;;;;;;5072923;28;20021;-78
2022/11/30 05:28:32;;;;;;;45.97;13.93;;;8.30;99.90;;;;;;5055261;28;20029;-79
2022/11/30 05:31:02;;;;;;;34.38;11.98;;;8.20;99.90;;;;;;5054677;28;20387;-79
2022/11/30 05:33:28;;;;;;;33.42;12.50;;;8.30;99.90;;;;;;5052726;28;20465;-79
2022/11/30 05:35:54;;;;;;;30.17;12.43;;;8.20;99.90;;;;;;5056897;28;20113;-79
2022/11/30 05:38:19;;;;;;;34.78;11.90;;;8.20;99.90;;;;;;5073010;28;20027;-81
2022/11/30 05:40:45;;;;;;;33.42;11.82;;;8.30;99.90;;;;;;5054790;28;20040;-79
2022/11/30 05:43:11;;;;;;;36.20;12.27;;;8.30;99.90;;;;;;5055050;28;20033;-79
2022/11/30 05:45:37;;;;;;;36.85;11.95;;;8.30;99.90;;;;;;5055467;28;20017;-78
2022/11/30 05:48:03;;;;;;;30.50;11.20;;;8.30;99.90;;;;;;5072209;28;20135;-79
2022/11/30 05:50:28;;;;;;;31.30;11.38;;;8.30;99.90;;;;;;5054144;28;20381;-79
2022/11/30 05:52:59;;;;;;;26.45;10.15;;;8.30;99.90;;;;;;5065326;28;20036;-79
2022/11/30 05:55:26;;;;;;;24.05;10.55;;;8.30;99.90;;;;;;5059888;28;20548;-78
2022/11/30 05:57:52;;;;;;;23.88;10.35;;;8.30;99.90;;;;;;5072020;28;20024;-79
2022/11/30 06:00:19;;;;;;;21.90;9.75;;;8.30;99.90;;;;;;5074834;28;20031;-81
2022/11/30 06:02:45;;;;;;;21.38;9.35;;;8.30;99.90;;;;;;5065317;28;20029;-78
2022/11/30 06:05:11;;;;;;;26.30;10.32;;;8.30;99.90;;;;;;5065802;28;20025;-80
2022/11/30 06:07:36;;;;;;;22.98;9.75;;;8.40;99.90;;;;;;5057754;28;20032;-79
2022/11/30 06:10:03;;;;;;;24.70;10.35;;;8.40;99.90;;;;;;5070398;28;20036;-79
2022/11/30 06:12:28;;;;;;;22.75;9.90;;;8.40;99.90;;;;;;5053276;28;20055;-79
2022/11/30 06:14:54;;;;;;;18.85;9.55;;;8.40;99.90;;;;;;5053171;28;20100;-81
2022/11/30 06:17:19;;;;;;;19.40;9.30;;;8.40;99.90;;;;;;5066928;28;20032;-82
2022/11/30 06:19:45;;;;;;;24.33;10.02;;;8.40;99.90;;;;;;5073565;28;20020;-80
2022/11/30 06:22:10;;;;;;;20.00;8.90;;;8.40;99.90;;;;;;5058698;28;20021;-80
2022/11/30 06:24:36;;;;;;;19.00;9.38;;;8.30;99.90;;;;;;5073112;28;20339;-78
2022/11/30 06:27:02;;;;;;;20.20;9.00;;;8.40;99.90;;;;;;5063137;28;20155;-80
2022/11/30 06:29:27;;;;;;;18.73;8.90;;;8.40;99.90;;;;;;5053461;28;20481;-80
2022/11/30 06:31:53;;;;;;;16.88;9.00;;;8.40;99.90;;;;;;5054016;28;20467;-79
2022/11/30 06:34:18;;;;;;;19.88;9.73;;;8.30;99.90;;;;;;5053625;28;20028;-79
2022/11/30 06:36:44;;;;;;;19.17;9.13;;;8.30;99.90;;;;;;5054187;28;20035;-79
2022/11/30 06:39:11;;;;;;;17.65;8.35;;;8.30;99.90;;;;;;5053930;28;20025;-79
2022/11/30 06:41:36;;;;;;;18.63;9.32;;;8.30;99.90;;;;;;5069580;28;20032;-80
2022/11/30 06:44:07;;;;;;;20.70;9.40;;;8.30;99.90;;;;;;5057727;28;20078;-78
2022/11/30 06:46:33;;;;;;;20.92;9.43;;;8.30;99.90;;;;;;5066600;28;20029;-79
2022/11/30 06:48:58;;;;;;;18.65;9.27;;;8.30;99.90;;;;;;5054197;28;20474;-79
2022/11/30 06:51:24;;;;;;;18.55;9.15;;;8.30;99.90;;;;;;5066947;28;20056;-79
2022/11/30 06:53:49;;;;;;;19.25;9.10;;;8.30;99.90;;;;;;5075089;28;20025;-79
2022/11/30 06:56:15;;;;;;;19.60;9.13;;;8.30;99.90;;;;;;5075383;28;20424;-80
2022/11/30 06:58:41;;;;;;;18.50;8.93;;;8.30;99.90;;;;;;5054960;28;20029;-79
2022/11/30 07:01:12;;;;;;;20.98;10.38;;;8.30;99.90;;;;;;5053563;28;20474;-79
2022/11/30 07:03:39;;;;;;;18.58;9.63;;;8.30;99.90;;;;;;5052695;28;20049;-79
2022/11/30 07:06:12;;;;;;;21.17;8.82;;;8.30;99.90;;;;;;5053395;28;20398;-79
2022/11/30 07:08:39;;;;;;;17.88;8.80;;;8.30;99.90;;;;;;5052511;28;20500;-79
2022/11/30 07:11:07;;;;;;;16.73;8.90;;;8.30;99.90;;;;;;5064493;28;20047;-78
2022/11/30 07:13:32;;;;;;;15.15;8.40;;;8.30;99.90;;;;;;5057655;28;20032;-79
2022/11/30 07:15:58;;;;;;;18.83;8.80;;;8.30;99.90;;;;;;5055609;28;20070;-79
2022/11/30 07:18:23;;;;;;;18.70;9.43;;;8.30;99.90;;;;;;5072163;28;20024;-78
2022/11/30 07:20:49;;;;;;;16.50;8.27;;;8.30;99.90;;;;;;5074045;28;20430;-79
2022/11/30 07:26:08;;;;;;;18.45;8.60;;;8.30;99.90;;;;;;5053640;28;20031;-77
2022/11/30 07:28:36;;;;;;;16.05;8.25;;;8.20;99.90;;;;;;5053259;28;20029;-78
2022/11/30 07:31:16;;;;;;;16.55;8.55;;;8.30;99.90;;;;;;5052421;28;20052;-77
2022/11/30 07:33:42;;;;;;;15.80;8.18;;;8.30;99.90;;;;;;5051393;28;20106;-79
2022/11/30 07:36:09;;;;;;;18.77;9.40;;;8.20;99.90;;;;;;5055785;28;20474;-79
2022/11/30 07:38:34;;;;;;;15.20;7.85;;;8.20;99.90;;;;;;5052822;28;20032;-78
2022/11/30 07:41:00;;;;;;;19.33;10.18;;;8.20;99.90;;;;;;5056364;28;20029;-78
2022/11/30 07:43:27;;;;;;;20.75;9.27;;;8.10;99.90;;;;;;5066608;28;20037;-79
2022/11/30 07:45:53;;;;;;;18.90;8.75;;;8.10;99.90;;;;;;5073424;28;20108;-79
2022/11/30 07:48:20;;;;;;;19.60;9.23;;;8.10;99.90;;;;;;5068592;28;20017;-78
2022/11/30 07:50:46;;;;;;;20.13;8.82;;;8.10;99.90;;;;;;5061790;28;20031;-79
2022/11/30 07:53:12;;;;;;;23.08;9.30;;;8.10;99.90;;;;;;5066851;28;20379;-79
2022/11/30 07:55:37;;;;;;;23.92;8.93;;;8.10;99.90;;;;;;5057468;28;20087;-79
2022/11/30 07:58:03;;;;;;;17.55;9.00;;;8.20;99.90;;;;;;5062923;28;20466;-78
2022/11/30 08:00:28;;;;;;;17.08;8.88;;;8.20;99.90;;;;;;5054491;28;20028;-79
2022/11/30 08:02:54;;;;;;;16.48;8.88;;;8.20;99.90;;;;;;5052440;28;20029;-79
2022/11/30 08:05:21;;;;;;;19.15;9.38;;;8.20;99.90;;;;;;5053200;28;20100;-79
2022/11/30 08:07:51;;;;;;;17.98;8.63;;;8.20;99.90;;;;;;5070255;28;20017;-78
2022/11/30 08:10:17;;;;;;;18.20;9.02;;;8.20;99.90;;;;;;5068658;28;20039;-79
2022/11/30 08:12:43;;;;;;;16.48;8.65;;;8.30;99.90;;;;;;5053582;28;20071;-77
2022/11/30 08:15:09;;;;;;;18.73;8.40;;;8.30;99.90;;;;;;5052657;28;20458;-76
2022/11/30 08:17:34;;;;;;;18.77;8.77;;;8.20;99.90;;;;;;5065942;28;20032;-76
2022/11/30 08:20:00;;;;;;;17.50;8.70;;;8.30;99.90;;;;;;5069050;28;20036;-76
2022/11/30 08:22:26;;;;;;;15.50;7.70;;;8.30;99.90;;;;;;5052469;28;20044;-78
2022/11/30 08:24:51;;;;;;;16.73;8.43;;;8.20;99.90;;;;;;5053837;28;20028;-78
2022/11/30 08:27:17;;;;;;;18.83;8.93;;;8.20;99.90;;;;;;5055808;28;20028;-78
2022/11/30 08:29:42;;;;;;;20.13;9.00;;;8.30;99.90;;;;;;5069177;28;20033;-78
2022/11/30 08:32:08;;;;;;;19.55;9.23;;;8.30;99.90;;;;;;5067366;28;20036;-77
2022/11/30 08:34:34;;;;;;;18.70;9.02;;;8.30;99.90;;;;;;5055292;28;20114;-77
2022/11/30 08:36:59;;;;;;;17.73;9.27;;;8.30;99.90;;;;;;5062588;28;20088;-79
2022/11/30 08:39:27;;;;;;;15.68;8.20;;;8.30;99.90;;;;;;5058067;28;20103;-79
2022/11/30 08:41:52;;;;;;;19.42;9.60;;;8.30;99.90;;;;;;5055473;28;20370;-77
2022/11/30 08:44:18;;;;;;;19.52;8.82;;;8.30;99.90;;;;;;5061798;28;20119;-77
2022/11/30 08:46:44;;;;;;;16.92;8.43;;;8.40;99.90;;;;;;5052810;28;20025;-76
2022/11/30 08:49:09;;;;;;;17.10;8.50;;;8.40;99.90;;;;;;5050840;28;20029;-77
2022/11/30 08:51:35;;;;;;;18.92;8.68;;;8.50;99.90;;;;;;5052146;28;20488;-77
2022/11/30 08:54:01;;;;;;;16.77;8.45;;;8.50;99.90;;;;;;5052569;28;20104;-77
2022/11/30 08:56:26;;;;;;;16.25;8.70;;;8.50;99.90;;;;;;5051164;28;20029;-76
2022/11/30 08:58:53;;;;;;;19.00;9.27;;;8.50;99.90;;;;;;5057303;28;20025;-77
2022/11/30 09:01:21;;;;;;;18.10;9.43;;;8.50;99.90;;;;;;5071878;28;20028;-77
2022/11/30 09:03:49;;;;;;;16.38;8.85;;;8.60;99.90;;;;;;5040841;28;20040;-78
2022/11/30 09:06:17;;;;;;;15.38;8.23;;;8.60;99.90;;;;;;5055079;28;20485;-77
2022/11/30 09:08:45;;;;;;;18.52;8.70;;;8.60;99.90;;;;;;5075749;28;20099;-78
2022/11/30 09:11:19;;;;;;;16.90;8.07;;;8.60;99.90;;;;;;5057594;28;20044;-78
2022/11/30 09:13:46;;;;;;;23.92;8.98;;;8.60;99.90;;;;;;5067929;28;20074;-78
2022/11/30 09:16:12;;;;;;;18.35;8.95;;;8.60;99.90;;;;;;5065140;28;20112;-78
2022/11/30 09:18:38;;;;;;;14.73;7.80;;;8.60;99.90;;;;;;5067422;28;20099;-78
2022/11/30 09:21:10;;;;;;;19.75;9.45;;;8.60;99.90;;;;;;5075057;28;20145;-77
2022/11/30 09:23:36;;;;;;;17.25;8.30;;;8.60;99.90;;;;;;5043440;28;20048;-78
2022/11/30 09:26:05;;;;;;;17.33;8.88;;;8.50;99.90;;;;;;5075907;28;20025;-77
2022/11/30 09:28:31;;;;;;;17.50;8.73;;;8.50;99.90;;;;;;5063151;28;20024;-77
2022/11/30 09:31:02;;;;;;;19.02;8.95;;;8.60;99.90;;;;;;5054485;28;20033;-77
2022/11/30 09:33:28;;;;;;;18.50;8.80;;;8.60;99.90;;;;;;5047990;28;20060;-78
2022/11/30 09:35:58;;;;;;;16.92;9.00;;;8.50;99.90;;;;;;5068138;28;20025;-78
2022/11/30 09:38:24;;;;;;;17.23;8.02;;;8.50;99.90;;;;;;5065112;28;20099;-77
2022/11/30 09:40:56;;;;;;;17.10;8.55;;;8.60;99.90;;;;;;5075416;28;20056;-78
2022/11/30 09:43:44;;;;;;;18.38;8.90;;;8.60;99.90;;;;;;5072309;28;20028;-78
2022/11/30 09:46:10;;;;;;;17.60;8.88;;;8.50;99.90;;;;;;5054577;28;20029;-78
2022/11/30 09:49:00;;;;;;;18.63;8.60;;;8.50;99.90;;;;;;5065606;28;20496;-78
2022/11/30 09:51:31;;;;;;;19.65;9.00;;;8.50;99.90;;;;;;5054303;28;20075;-78
2022/11/30 09:54:07;;;;;;;20.27;7.93;;;8.50;99.90;;;;;;5055693;28;20060;-78
2022/11/30 09:56:37;;;;;;;18.05;8.25;;;8.60;99.90;;;;;;5066671;28;20387;-77
2022/11/30 09:59:28;;;;;;;20.52;10.07;;;8.50;99.90;;;;;;5074412;28;20024;-77
2022/11/30 10:01:55;;;;;;;18.08;8.32;;;8.60;99.90;;;;;;5047549;28;20067;-77
2022/11/30 10:04:29;;;;;;;17.38;8.75;;;8.60;99.90;;;;;;5055751;28;20089;-78
2022/11/30 10:07:11;;;;;;;16.13;7.93;;;8.70;99.90;;;;;;5054940;28;20028;-78
2022/11/30 10:09:51;;;;;;;17.85;7.72;;;8.70;99.90;;;;;;5058068;28;20024;-78
2022/11/30 10:12:55;;;;;;;15.27;7.72;;;8.70;99.90;;;;;;5064640;28;20116;-78
2022/11/30 10:15:41;;;;;;;18.52;8.48;;;8.70;99.90;;;;;;5031824;28;20124;-77
2022/11/30 10:18:31;;;;;;;17.75;8.52;;;8.70;99.90;;;;;;5061076;28;20033;-78
2022/11/30 10:21:22;;;;;;;16.33;8.18;;;8.70;99.90;;;;;;5058921;28;20032;-78
2022/11/30 10:24:10;;;;;;;16.97;8.20;;;8.80;99.90;;;;;;5045768;28;20100;-78
2022/11/30 10:26:37;;;;;;;16.58;8.77;;;8.80;99.90;;;;;;5061027;28;20079;-78
2022/11/30 10:29:19;;;;;;;15.85;8.18;;;8.80;99.90;;;;;;5055183;28;20025;-78
2022/11/30 10:31:48;;;;;;;15.35;8.07;;;8.90;99.90;;;;;;5042728;28;20048;-78
2022/11/30 10:34:34;;;;;;;15.60;7.93;;;8.90;99.90;;;;;;5065117;28;20025;-78
2022/11/30 10:37:11;;;;;;;16.15;8.18;;;8.90;99.90;;;;;;5073754;28;20031;-78
2022/11/30 10:39:59;;;;;;;16.02;8.02;;;9.00;99.90;;;;;;5032480;28;20087;-78
2022/11/30 10:42:32;;;;;;;15.00;7.70;;;9.00;99.90;;;;;;5032410;28;20088;-78
2022/11/30 10:45:08;;;;;;;13.27;7.68;;;9.00;99.90;;;;;;5032936;28;20547;-78
2022/11/30 10:47:36;;;;;;;13.63;7.50;;;9.10;99.90;;;;;;5032397;28;20065;-78
2022/11/30 10:50:04;;;;;;;18.38;8.05;;;9.10;99.90;;;;;;5049147;28;20112;-78
2022/11/30 10:52:52;;;;;;;16.17;8.23;;;9.00;99.90;;;;;;5072120;28;20025;-77
2022/11/30 10:55:23;;;;;;;16.38;8.18;;;9.10;99.90;;;;;;5054661;28;20466;-77
2022/11/30 10:57:56;;;;;;;16.25;8.25;;;9.20;99.90;;;;;;5052775;28;20385;-77
2022/11/30 11:00:22;;;;;;;13.18;7.70;;;9.10;99.90;;;;;;5063976;28;20028;-77
2022/11/30 11:02:48;;;;;;;15.95;8.60;;;9.20;99.90;;;;;;5058219;28;20029;-77
2022/11/30 11:05:24;;;;;;;18.77;8.38;;;9.20;99.90;;;;;;5071195;28;20138;-77
2022/11/30 11:08:01;;;;;;;16.00;8.30;;;9.20;99.90;;;;;;5066785;28;20029;-77
2022/11/30 11:10:38;;;;;;;16.48;8.27;;;9.30;99.90;;;;;;5062660;28;20028;-77
2022/11/30 11:13:04;;;;;;;15.93;8.27;;;9.30;99.90;;;;;;5057270;28;20057;-77
2022/11/30 11:15:32;;;;;;;15.98;8.13;;;9.20;99.90;;;;;;5068158;28;20454;-77
2022/11/30 11:18:21;;;;;;;16.33;8.43;;;9.30;99.90;;;;;;5059105;28;20056;-77
2022/11/30 11:20:47;;;;;;;16.52;8.88;;;9.30;99.90;;;;;;5072215;28;20017;-77
2022/11/30 11:23:29;;;;;;;14.18;8.45;;;9.30;99.90;;;;;;5055361;28;20025;-78
2022/11/30 11:25:56;;;;;;;15.68;8.52;;;9.40;99.90;;;;;;5066613;28;20373;-77
2022/11/30 11:28:24;;;;;;;17.92;9.13;;;9.40;99.90;;;;;;5051806;28;20493;-77
2022/11/30 11:30:56;;;;;;;15.60;8.27;;;9.40;99.90;;;;;;5052790;28;20032;-78
2022/11/30 11:33:23;;;;;;;;;;;9.50;99.90;;;;;;5059957;28;20036;-78
2022/11/30 11:35:51;;;;;;;18.98;9.45;;;9.60;99.90;;;;;;5057825;28;20377;-77
2022/11/30 11:38:16;;;;;;;15.80;8.98;;;9.60;99.90;;;;;;5071677;28;20471;-77
2022/11/30 11:41:01;;;;;;;19.70;9.52;;;9.70;99.90;;;;;;5070664;28;20124;-77
2022/11/30 11:43:30;;;;;;;19.10;10.05;;;9.80;99.90;;;;;;5072737;28;20035;-77
2022/11/30 11:46:09;;;;;;;17.60;9.35;;;9.90;99.90;;;;;;5073295;28;20024;-78
2022/11/30 11:48:40;;;;;;;21.15;10.30;;;10.10;99.90;;;;;;5058706;28;20042;-78
2022/11/30 11:51:12;;;;;;;16.83;9.23;;;10.30;99.90;;;;;;5068875;28;20056;-77
2022/11/30 11:53:52;;;;;;;18.83;9.90;;;10.40;99.90;;;;;;5039939;28;20021;-77
2022/11/30 11:56:31;;;;;;;17.77;9.75;;;10.30;99.90;;;;;;5068407;28;20086;-78
2022/11/30 11:59:04;;;;;;;17.52;9.45;;;10.10;99.90;;;;;;5051937;28;20462;-77
2022/11/30 12:02:10;;;;;;;19.83;9.65;;;10.00;99.90;;;;;;5052466;28;20031;-77
2022/11/30 12:04:56;;;;;;;17.13;8.70;;;9.90;99.90;;;;;;5051483;28;20029;-78
2022/11/30 12:07:52;;;;;;;18.17;9.05;;;10.00;99.90;;;;;;5053081;28;20075;-77
2022/11/30 12:10:34;;;;;;;19.77;9.15;;;10.00;99.90;;;;;;5053077;28;20040;-77
2022/11/30 12:13:00;;;;;;;16.48;8.40;;;9.90;99.90;;;;;;5051732;28;20049;-77
2022/11/30 12:15:35;;;;;;;15.80;8.63;;;9.90;99.90;;;;;;5052406;28;20359;-77
2022/11/30 12:18:19;;;;;;;15.57;8.57;;;10.00;99.90;;;;;;5052910;28;20029;-77
2022/11/30 12:21:09;;;;;;;15.75;7.82;;;10.00;99.90;;;;;;5052148;28;20033;-77
2022/11/30 12:23:52;;;;;;;15.73;8.52;;;10.00;99.90;;;;;;5041582;28;20029;-77
2022/11/30 12:26:24;;;;;;;15.73;8.40;;;10.10;99.90;;;;;;5056699;28;20046;-78
2022/11/30 12:29:12;;;;;;;15.40;7.97;;;10.10;99.90;;;;;;5057642;28;20387;-78
2022/11/30 12:32:13;;;;;;;14.65;8.15;;;10.00;99.90;;;;;;5049844;28;20041;-78
2022/11/30 12:35:02;;;;;;;14.63;8.00;;;9.90;99.90;;;;;;5036067;28;20033;-78
2022/11/30 12:38:05;;;;;;;17.13;8.30;;;9.90;99.90;;;;;;5046747;28;20175;-78
2022/11/30 12:40:40;;;;;;;14.27;7.93;;;9.90;99.90;;;;;;5034646;28;20033;-77
2022/11/30 12:43:09;;;;;;;17.35;9.40;;;9.80;99.90;;;;;;5051612;28;20178;-78
2022/11/30 12:45:42;;;;;;;16.85;8.95;;;9.80;99.90;;;;;;5054571;28;20029;-78
2022/11/30 12:48:28;;;;;;;16.15;8.60;;;9.80;99.90;;;;;;5055192;28;20029;-78
2022/11/30 12:51:22;;;;;;;19.00;9.73;;;9.70;99.90;;;;;;5055251;28;20124;-77
2022/11/30 12:53:54;;;;;;;21.20;9.95;;;9.70;99.90;;;;;;5055622;28;20082;-78
2022/11/30 12:56:39;;;;;;;14.65;8.20;;;9.70;99.90;;;;;;5059776;28;20023;-79
2022/11/30 12:59:26;;;;;;;16.20;8.30;;;9.70;99.90;;;;;;5064965;28;20040;-78
2022/11/30 13:02:07;;;;;;;16.00;8.38;;;9.60;99.90;;;;;;5071185;28;20024;-78